Milwaukee, Wisconsin
Traffic Map
Current Weather Conditions
Milwaukee, Wisconsin
Few Clouds
Few Clouds
69°
Feels Like: 69°
Wind Chill: 69° Ceiling: Unl
Heat Index: 69° Visibility: 10mi
Dew Point: 51° Wind: 10mph
Humidity: 53% Direction: 150° (SSE)
Pressure: 30.27in Gusts: 0mph
Raw Report DataKMKE 232152Z 15009KT 10SM FEW250 21/11 A3027 RMK AO2 SLP248 T02060106
Traffic Incident Summary
Active as of:
Severity:
Category:
InformationThere was an issue retrieving the traffic information for this location. Please try a different location or try again shortly.
Advertisements
Track Severe Weather on mobile